createdAt,value
2019-06-20T00:02:23.040Z,93288.72
2019-06-20T00:04:58.889Z,93283.60
2019-06-20T00:07:34.315Z,93286.75
2019-06-20T00:10:25.702Z,93286.40
2019-06-20T00:13:00.652Z,93278.65
2019-06-20T00:15:32.949Z,93287.36
2019-06-20T00:18:08.601Z,93278.25
2019-06-20T00:20:41.443Z,93284.68
2019-06-20T00:23:14.219Z,93294.00
2019-06-20T00:25:47.008Z,93297.77
2019-06-20T00:28:19.734Z,93287.27
2019-06-20T00:30:58.147Z,93289.93
2019-06-20T00:33:36.346Z,93290.72
2019-06-20T00:36:16.542Z,93282.38
2019-06-20T00:38:58.808Z,93282.02
2019-06-20T00:41:37.015Z,93280.02
2019-06-20T00:44:12.076Z,93278.48
2019-06-20T00:46:48.495Z,93277.70
2019-06-20T00:49:27.019Z,93275.46
2019-06-20T00:52:06.960Z,93278.48
2019-06-20T00:54:42.004Z,93283.55
2019-06-20T00:57:16.597Z,93283.98
2019-06-20T00:59:57.213Z,93280.14
2019-06-20T01:02:29.978Z,93280.67
2019-06-20T01:05:03.113Z,93281.50
2019-06-20T01:07:35.913Z,93278.61
2019-06-20T01:10:10.757Z,93278.55
2019-06-20T01:12:43.540Z,93278.98
2019-06-20T01:15:17.399Z,93271.83
2019-06-20T01:17:50.140Z,93277.30
2019-06-20T01:20:23.034Z,93268.58
2019-06-20T01:22:55.830Z,93265.61
2019-06-20T01:25:28.734Z,93265.88
2019-06-20T01:28:04.843Z,93264.14
2019-06-20T01:30:37.895Z,93258.36
2019-06-20T01:33:10.684Z,93247.07
2019-06-20T01:35:43.458Z,93251.30
2019-06-20T01:38:21.278Z,93238.88
2019-06-20T01:40:54.054Z,93230.27
2019-06-20T01:43:26.797Z,93239.75
2019-06-20T01:45:59.645Z,93230.88
2019-06-20T01:48:32.454Z,93235.70
2019-06-20T01:51:05.244Z,93242.65
2019-06-20T01:53:38.044Z,93239.93
2019-06-20T01:56:10.885Z,93236.17
2019-06-20T01:58:43.694Z,93241.27
2019-06-20T02:01:16.604Z,93234.87
2019-06-20T02:03:49.411Z,93233.98
2019-06-20T02:06:22.144Z,93232.02
2019-06-20T02:08:55.128Z,93234.21
2019-06-20T02:11:29.835Z,93235.20
2019-06-20T02:14:07.317Z,93232.41
2019-06-20T02:16:43.807Z,93227.01
2019-06-20T02:19:16.569Z,93228.52
2019-06-20T02:21:49.430Z,93221.66
2019-06-20T02:24:23.755Z,93224.02
2019-06-20T02:26:59.494Z,93220.27
2019-06-20T02:29:32.186Z,93221.34
2019-06-20T02:32:08.953Z,93222.22
2019-06-20T02:34:43.809Z,93214.00
2019-06-20T02:37:24.398Z,93217.05
2019-06-20T02:40:02.786Z,93215.17
2019-06-20T02:42:36.147Z,93215.89
2019-06-20T02:45:12.020Z,93210.45
2019-06-20T02:47:46.470Z,93218.07
2019-06-20T02:50:19.194Z,93219.64
2019-06-20T02:52:56.796Z,93216.02
2019-06-20T02:55:38.520Z,93218.32
2019-06-20T02:58:11.492Z,93215.70
2019-06-20T03:00:46.025Z,93218.80
2019-06-20T03:03:18.774Z,93226.55
2019-06-20T03:05:51.500Z,93225.81
2019-06-20T03:08:27.978Z,93229.35
2019-06-20T03:11:02.017Z,93223.97
2019-06-20T03:13:34.984Z,93221.00
2019-06-20T03:16:07.770Z,93223.36
2019-06-20T03:18:45.030Z,93232.84
2019-06-20T03:21:17.739Z,93238.18
2019-06-20T03:23:50.529Z,93234.03
2019-06-20T03:26:25.166Z,93235.79
2019-06-20T03:28:57.964Z,93233.24
2019-06-20T03:31:32.320Z,93234.64
2019-06-20T03:34:05.098Z,93240.16
2019-06-20T03:36:45.460Z,93231.44
2019-06-20T03:39:20.141Z,93232.14
2019-06-20T03:41:54.471Z,93232.69
2019-06-20T03:44:28.824Z,93222.95
2019-06-20T03:47:02.778Z,93225.72
2019-06-20T03:49:35.664Z,93232.89
2019-06-20T03:52:08.479Z,93218.32
2019-06-20T03:54:41.264Z,93226.16
2019-06-20T03:57:14.384Z,93224.83
2019-06-20T03:59:50.139Z,93229.86
2019-06-20T04:02:22.860Z,93229.98
2019-06-20T04:04:55.689Z,93232.69
2019-06-20T04:07:30.908Z,93233.37
2019-06-20T04:10:03.761Z,93237.74
2019-06-20T04:12:36.474Z,93237.86
2019-06-20T04:15:19.195Z,93241.50
2019-06-20T04:17:44.524Z,93237.14
2019-06-20T04:20:17.286Z,93231.25
2019-06-20T04:22:50.359Z,93228.75
2019-06-20T04:25:24.297Z,93235.32
2019-06-20T04:27:58.632Z,93225.60
2019-06-20T04:30:31.494Z,93232.41
2019-06-20T04:33:04.300Z,93234.05
2019-06-20T04:35:37.922Z,93236.38
2019-06-20T04:38:10.599Z,93235.27
2019-06-20T04:40:43.491Z,93242.19
2019-06-20T04:43:16.265Z,93235.19
2019-06-20T04:45:55.941Z,93236.14
2019-06-20T04:48:30.821Z,93235.42
2019-06-20T04:51:05.811Z,93245.01
2019-06-20T04:53:38.646Z,93247.31
2019-06-20T04:56:11.577Z,93250.48
2019-06-20T04:58:45.519Z,93256.64
2019-06-20T05:01:19.332Z,93265.87
2019-06-20T05:03:52.083Z,93266.48
2019-06-20T05:06:24.901Z,93256.19
2019-06-20T05:08:57.673Z,93260.53
2019-06-20T05:11:30.550Z,93262.27
2019-06-20T05:14:03.296Z,93262.03
2019-06-20T05:16:36.160Z,93259.52
2019-06-20T05:19:08.977Z,93259.40
2019-06-20T05:21:41.768Z,93262.64
2019-06-20T05:24:14.582Z,93265.58
2019-06-20T05:26:47.956Z,93259.91
2019-06-20T05:29:20.636Z,93262.09
2019-06-20T05:31:53.740Z,93261.14
2019-06-20T05:34:26.517Z,93260.36
2019-06-20T05:36:59.236Z,93261.22
2019-06-20T05:39:31.977Z,93264.01
2019-06-20T05:42:06.977Z,93263.59
2019-06-20T05:44:39.712Z,93270.14
2019-06-20T05:47:14.201Z,93272.55
2019-06-20T05:49:46.957Z,93280.92
2019-06-20T05:52:21.422Z,93276.52
2019-06-20T05:54:54.144Z,93278.21
2019-06-20T05:57:26.982Z,93286.59
2019-06-20T05:59:59.766Z,93290.84
2019-06-20T06:02:34.093Z,93290.77
2019-06-20T06:05:08.440Z,93295.33
2019-06-20T06:07:41.180Z,93300.55
2019-06-20T06:10:13.855Z,93299.58
2019-06-20T06:12:48.249Z,93298.97
2019-06-20T06:15:20.957Z,93303.36
2019-06-20T06:17:53.751Z,93305.73
2019-06-20T06:20:26.524Z,93311.12
2019-06-20T06:22:59.814Z,93307.93
2019-06-20T06:25:32.540Z,93309.36
2019-06-20T06:28:05.413Z,93315.50
2019-06-20T06:30:38.233Z,93318.16
2019-06-20T06:33:11.035Z,93320.83
2019-06-20T06:35:43.789Z,93319.28
2019-06-20T06:38:21.777Z,93320.36
2019-06-20T06:40:51.106Z,93328.61
2019-06-20T06:43:23.890Z,93317.86
2019-06-20T06:45:56.738Z,93324.72
2019-06-20T06:48:29.690Z,93320.55
2019-06-20T06:51:02.488Z,93336.02
2019-06-20T06:53:35.992Z,93328.62
2019-06-20T06:56:12.436Z,93324.77
2019-06-20T06:58:44.872Z,93322.75
2019-06-20T07:01:17.662Z,93318.23
2019-06-20T07:03:50.453Z,93321.06
2019-06-20T07:06:23.280Z,93323.81
2019-06-20T07:08:58.344Z,93336.52
2019-06-20T07:11:31.416Z,93326.02
2019-06-20T07:14:07.145Z,93319.61
2019-06-20T07:16:40.160Z,93324.56
2019-06-20T07:19:13.029Z,93330.05
2019-06-20T07:21:45.713Z,93340.88
2019-06-20T07:24:18.488Z,93339.09
2019-06-20T07:26:52.212Z,93335.69
2019-06-20T07:29:24.965Z,93338.83
2019-06-20T07:31:57.665Z,93338.27
2019-06-20T07:34:30.377Z,93341.01
2019-06-20T07:37:05.089Z,93342.88
2019-06-20T07:39:38.631Z,93334.41
2019-06-20T07:42:11.373Z,93339.27
2019-06-20T07:44:44.245Z,93342.66
2019-06-20T07:47:18.095Z,93337.65
2019-06-20T07:49:51.441Z,93339.11
2019-06-20T07:52:26.156Z,93341.46
2019-06-20T07:54:59.075Z,93339.05
2019-06-20T07:57:37.009Z,93338.47
2019-06-20T08:00:09.753Z,93336.66
2019-06-20T08:02:44.634Z,93343.47
2019-06-20T08:05:23.149Z,93334.27
2019-06-20T08:07:56.184Z,93341.56
2019-06-20T08:10:30.105Z,93341.17
2019-06-20T08:13:03.434Z,93347.11
2019-06-20T08:15:37.259Z,93341.77
2019-06-20T08:18:14.080Z,93340.24
2019-06-20T08:20:50.677Z,93354.50
2019-06-20T08:23:23.924Z,93354.06
2019-06-20T08:25:59.299Z,93360.08
2019-06-20T08:28:33.094Z,93353.03
2019-06-20T08:31:06.825Z,93355.91
2019-06-20T08:33:42.293Z,93352.48
2019-06-20T08:36:15.123Z,93355.31
2019-06-20T08:38:47.941Z,93357.57
2019-06-20T08:41:20.725Z,93353.14
2019-06-20T08:43:56.758Z,93347.41
2019-06-20T08:46:30.033Z,93348.63
2019-06-20T08:49:03.605Z,93346.95
2019-06-20T08:51:41.669Z,93346.80
2019-06-20T08:54:18.656Z,93353.13
2019-06-20T08:56:55.601Z,93347.48
2019-06-20T08:59:26.480Z,93350.89
2019-06-20T09:02:00.720Z,93345.77
2019-06-20T09:04:34.541Z,93351.45
2019-06-20T09:07:08.217Z,93356.33
2019-06-20T09:09:40.960Z,93352.91
2019-06-20T09:12:13.980Z,93356.05
2019-06-20T09:14:47.357Z,93355.14
2019-06-20T09:17:20.403Z,93352.41
2019-06-20T09:19:55.854Z,93361.86
2019-06-20T09:22:29.252Z,93364.27
2019-06-20T09:25:02.948Z,93358.01
2019-06-20T09:27:36.465Z,93359.55
2019-06-20T09:30:09.189Z,93365.38
2019-06-20T09:32:41.983Z,93357.23
2019-06-20T09:35:14.743Z,93356.03
2019-06-20T09:37:47.672Z,93351.72
2019-06-20T09:40:20.417Z,93350.20
2019-06-20T09:42:54.434Z,93359.72
2019-06-20T09:45:27.753Z,93364.03
2019-06-20T09:48:00.604Z,93368.17
2019-06-20T09:50:33.566Z,93371.25
2019-06-20T09:53:06.336Z,93366.59
2019-06-20T09:55:39.016Z,93373.20
2019-06-20T09:58:11.908Z,93366.21
2019-06-20T10:00:47.655Z,93360.34
2019-06-20T10:03:20.476Z,93369.19
2019-06-20T10:05:54.777Z,93369.55
2019-06-20T10:08:30.638Z,93363.96
2019-06-20T10:11:03.317Z,93357.03
2019-06-20T10:13:37.816Z,93357.16
2019-06-20T10:16:10.509Z,93363.65
2019-06-20T10:18:43.324Z,93363.66
2019-06-20T10:21:16.192Z,93358.54
2019-06-20T10:23:49.690Z,93359.20
2019-06-20T10:26:23.525Z,93359.88
2019-06-20T10:29:00.521Z,93357.98
2019-06-20T10:31:34.949Z,93362.52
2019-06-20T10:34:07.824Z,93369.95
2019-06-20T10:36:42.160Z,93360.73
2019-06-20T10:39:14.949Z,93364.81
2019-06-20T10:41:48.546Z,93367.89
2019-06-20T10:44:22.187Z,93366.27
2019-06-20T10:46:55.897Z,93367.28
2019-06-20T10:49:28.794Z,93365.95
2019-06-20T10:52:01.586Z,93366.72
2019-06-20T10:54:34.843Z,93362.18
2019-06-20T10:57:07.578Z,93354.80
2019-06-20T10:59:41.640Z,93360.92
2019-06-20T11:02:16.627Z,93363.25
2019-06-20T11:04:49.831Z,93361.84
2019-06-20T11:07:24.067Z,93367.31
2019-06-20T11:09:56.961Z,93366.55
2019-06-20T11:12:42.638Z,93360.63
2019-06-20T11:15:04.291Z,93360.16
2019-06-20T11:17:39.171Z,93357.98
2019-06-20T11:20:12.542Z,93352.75
2019-06-20T11:22:45.463Z,93348.07
2019-06-20T11:25:19.257Z,93352.29
2019-06-20T11:27:52.653Z,93349.15
2019-06-20T11:30:25.384Z,93345.95
2019-06-20T11:32:59.739Z,93342.58
2019-06-20T11:35:36.575Z,93343.45
2019-06-20T11:38:10.212Z,93339.58
2019-06-20T11:40:43.934Z,93341.55
2019-06-20T11:43:17.386Z,93340.72
2019-06-20T11:45:50.993Z,93342.19
2019-06-20T11:48:23.719Z,93336.67
2019-06-20T11:50:56.606Z,93340.63
2019-06-20T11:53:31.830Z,93338.21
2019-06-20T11:56:04.641Z,93336.44
2019-06-20T11:58:37.382Z,93335.70
2019-06-20T12:01:10.122Z,93329.69
2019-06-20T12:03:46.721Z,93329.50
2019-06-20T12:06:22.295Z,93320.62
2019-06-20T12:08:55.248Z,93307.28
2019-06-20T12:11:28.033Z,93303.94
2019-06-20T12:14:00.688Z,93306.28
2019-06-20T12:16:33.425Z,93314.15
2019-06-20T12:19:06.259Z,93313.20
2019-06-20T12:21:39.738Z,93311.38
2019-06-20T12:24:13.537Z,93311.71
2019-06-20T12:26:46.845Z,93309.20
2019-06-20T12:29:22.459Z,93300.58
2019-06-20T12:31:56.308Z,93306.05
2019-06-20T12:34:29.546Z,93303.59
2019-06-20T12:37:02.273Z,93305.12
2019-06-20T12:39:35.106Z,93301.67
2019-06-20T12:42:07.955Z,93304.48
2019-06-20T12:44:41.693Z,93300.78
2019-06-20T12:47:14.677Z,93289.25
2019-06-20T12:49:47.434Z,93292.16
2019-06-20T12:52:20.234Z,93285.44
2019-06-20T12:54:55.004Z,93276.91
2019-06-20T12:57:29.951Z,93279.17
2019-06-20T13:00:02.633Z,93276.80
2019-06-20T13:02:35.481Z,93269.41
2019-06-20T13:05:09.982Z,93274.33
2019-06-20T13:07:44.164Z,93261.84
2019-06-20T13:10:20.168Z,93257.34
2019-06-20T13:12:53.203Z,93248.05
2019-06-20T13:15:26.064Z,93250.83
2019-06-20T13:17:58.814Z,93249.64
2019-06-20T13:20:31.779Z,93253.53
2019-06-20T13:23:04.642Z,93251.56
2019-06-20T13:25:37.766Z,93251.62
2019-06-20T13:28:11.974Z,93255.09
2019-06-20T13:30:48.745Z,93255.08
2019-06-20T13:33:19.316Z,93262.81
2019-06-20T13:35:51.992Z,93251.91
2019-06-20T13:38:24.853Z,93244.94
2019-06-20T13:40:57.614Z,93243.80
2019-06-20T13:43:30.488Z,93244.98
2019-06-20T13:46:03.109Z,93248.39
2019-06-20T13:48:36.558Z,93240.11
2019-06-20T13:51:09.534Z,93245.89
2019-06-20T13:53:42.664Z,93242.55
2019-06-20T13:56:16.759Z,93233.21
2019-06-20T13:58:51.126Z,93238.50
2019-06-20T14:01:25.677Z,93230.66
2019-06-20T14:03:58.629Z,93228.16
2019-06-20T14:06:34.219Z,93224.05
2019-06-20T14:09:12.901Z,93231.16
2019-06-20T14:11:45.457Z,93232.76
2019-06-20T14:14:18.311Z,93224.59
2019-06-20T14:16:52.141Z,93215.18
2019-06-20T14:19:25.363Z,93215.96
2019-06-20T14:21:59.666Z,93215.42
2019-06-20T14:24:32.430Z,93214.53
2019-06-20T14:27:05.636Z,93214.98
2019-06-20T14:29:43.229Z,93210.58
2019-06-20T14:32:22.181Z,93211.88
2019-06-20T14:34:52.298Z,93210.26
2019-06-20T14:37:25.195Z,93206.75
2019-06-20T14:39:59.358Z,93200.46
2019-06-20T14:42:34.322Z,93201.91
2019-06-20T14:45:11.056Z,93204.95
2019-06-20T14:47:45.504Z,93197.91
2019-06-20T14:50:18.326Z,93203.45
2019-06-20T14:52:52.238Z,93220.05
2019-06-20T14:55:26.771Z,93220.17
2019-06-20T14:57:59.444Z,93212.47
2019-06-20T15:00:32.068Z,93225.48
2019-06-20T15:03:04.879Z,93222.36
2019-06-20T15:05:37.778Z,93211.59
2019-06-20T15:08:10.541Z,93214.73
2019-06-20T15:10:43.226Z,93218.13
2019-06-20T15:13:16.063Z,93226.32
2019-06-20T15:15:49.512Z,93238.71
2019-06-20T15:18:23.278Z,93234.90
2019-06-20T15:20:59.181Z,93233.30
2019-06-20T15:23:32.169Z,93232.49
2019-06-20T15:26:05.103Z,93233.08
2019-06-20T15:28:37.855Z,93232.80
2019-06-20T15:31:10.546Z,93233.05
2019-06-20T15:33:43.318Z,93240.52
2019-06-20T15:36:18.144Z,93242.23
2019-06-20T15:38:51.156Z,93239.73
2019-06-20T15:41:26.923Z,93251.91
2019-06-20T15:44:00.769Z,93252.31
2019-06-20T15:46:33.807Z,93251.40
2019-06-20T15:49:16.025Z,93252.33
2019-06-20T15:51:42.804Z,93264.02
2019-06-20T15:54:15.459Z,93268.53
2019-06-20T15:56:49.398Z,93265.73
2019-06-20T15:59:22.165Z,93273.09
2019-06-20T16:01:56.857Z,93271.19
2019-06-20T16:04:29.664Z,93276.66
2019-06-20T16:07:03.019Z,93271.36
2019-06-20T16:09:37.034Z,93270.01
2019-06-20T16:12:09.817Z,93267.52
2019-06-20T16:14:45.413Z,93277.39
2019-06-20T16:17:18.725Z,93280.13
2019-06-20T16:19:51.524Z,93279.47
2019-06-20T16:22:25.905Z,93277.38
2019-06-20T16:25:02.606Z,93276.72
2019-06-20T16:27:35.568Z,93273.30
2019-06-20T16:30:08.236Z,93276.09
2019-06-20T16:32:42.803Z,93281.27
2019-06-20T16:35:17.109Z,93276.75
2019-06-20T16:37:49.827Z,93275.60
2019-06-20T16:40:22.628Z,93278.33
2019-06-20T16:42:55.433Z,93287.73
2019-06-20T16:45:29.746Z,93288.15
2019-06-20T16:48:02.559Z,93286.95
2019-06-20T16:50:35.487Z,93286.13
2019-06-20T16:53:08.238Z,93298.06
2019-06-20T16:55:41.116Z,93300.05
2019-06-20T16:58:14.219Z,93293.92
2019-06-20T17:00:47.007Z,93296.98
2019-06-20T17:03:20.137Z,93301.20
2019-06-20T17:05:52.915Z,93295.58
2019-06-20T17:08:25.822Z,93311.75
2019-06-20T17:10:58.657Z,93305.25
2019-06-20T17:13:31.509Z,93307.75
2019-06-20T17:16:04.434Z,93309.63
2019-06-20T17:18:37.228Z,93313.89
2019-06-20T17:21:11.628Z,93317.02
2019-06-20T17:23:48.319Z,93308.57
2019-06-20T17:26:22.673Z,93314.69
2019-06-20T17:28:55.545Z,93309.27
2019-06-20T17:31:28.474Z,93316.08
2019-06-20T17:34:01.455Z,93310.48
2019-06-20T17:36:36.462Z,93307.84
2019-06-20T17:39:09.364Z,93311.39
2019-06-20T17:41:54.407Z,93317.56
2019-06-20T17:44:18.226Z,93316.17
2019-06-20T17:46:53.590Z,93306.48
2019-06-20T17:49:27.931Z,93319.94
2019-06-20T17:52:00.715Z,93312.01
2019-06-20T17:54:36.284Z,93311.30
2019-06-20T17:57:12.970Z,93304.22
2019-06-20T17:59:45.665Z,93299.68
2019-06-20T18:02:18.533Z,93295.34
2019-06-20T18:04:53.011Z,93300.11
2019-06-20T18:07:25.764Z,93303.56
2019-06-20T18:09:58.550Z,93295.25
2019-06-20T18:12:32.058Z,93297.88
2019-06-20T18:15:04.908Z,93302.05
2019-06-20T18:17:37.673Z,93304.41
2019-06-20T18:20:10.550Z,93314.41
2019-06-20T18:22:43.344Z,93317.24
2019-06-20T18:25:17.710Z,93320.49
2019-06-20T18:27:53.585Z,93324.06
2019-06-20T18:30:26.398Z,93325.20
2019-06-20T18:33:02.071Z,93323.42
2019-06-20T18:35:36.766Z,93326.64
2019-06-20T18:38:09.674Z,93329.34
2019-06-20T18:40:42.501Z,93327.45
2019-06-20T18:43:17.427Z,93342.09
2019-06-20T18:45:50.226Z,93345.20
2019-06-20T18:48:24.545Z,93347.36
2019-06-20T18:50:57.367Z,93349.03
2019-06-20T18:53:30.467Z,93361.86
2019-06-20T18:56:03.212Z,93357.94
2019-06-20T18:58:44.360Z,93365.08
2019-06-20T19:01:17.831Z,93361.85
2019-06-20T19:03:50.609Z,93353.83
2019-06-20T19:06:35.505Z,93361.67
2019-06-20T19:08:58.470Z,93356.94
2019-06-20T19:11:35.039Z,93360.29
2019-06-20T19:14:07.804Z,93359.51
2019-06-20T19:16:40.896Z,93343.48
2019-06-20T19:19:13.651Z,93342.66
2019-06-20T19:21:46.574Z,93342.19
2019-06-20T19:24:19.574Z,93353.83
2019-06-20T19:26:53.431Z,93376.67
2019-06-20T19:29:26.386Z,93394.82
2019-06-20T19:31:59.094Z,93401.93
2019-06-20T19:34:31.846Z,93399.01
2019-06-20T19:37:04.643Z,93407.77
2019-06-20T19:39:37.379Z,93418.44
2019-06-20T19:42:10.224Z,93410.45
2019-06-20T19:44:43.188Z,93412.16
2019-06-20T19:47:16.172Z,93410.09
2019-06-20T19:49:50.921Z,93415.00
2019-06-20T19:52:23.798Z,93419.60
2019-06-20T19:54:56.525Z,93416.34
2019-06-20T19:57:31.569Z,93418.66
2019-06-20T20:00:04.847Z,93418.35
2019-06-20T20:02:37.752Z,93417.39
2019-06-20T20:05:18.915Z,93414.36
2019-06-20T20:07:45.145Z,93419.78
2019-06-20T20:10:18.064Z,93418.21
2019-06-20T20:12:52.437Z,93424.19
2019-06-20T20:15:25.188Z,93426.55
2019-06-20T20:17:58.311Z,93431.59
2019-06-20T20:20:32.931Z,93439.21
2019-06-20T20:23:05.884Z,93441.22
2019-06-20T20:25:39.768Z,93442.78
2019-06-20T20:28:12.620Z,93443.34
2019-06-20T20:30:47.974Z,93446.23
2019-06-20T20:33:21.562Z,93448.73
2019-06-20T20:35:54.429Z,93448.56
2019-06-20T20:38:27.349Z,93440.15
2019-06-20T20:41:00.081Z,93447.30
2019-06-20T20:43:32.998Z,93445.41
2019-06-20T20:46:08.784Z,93442.41
2019-06-20T20:48:41.544Z,93449.96
2019-06-20T20:51:14.413Z,93456.23
2019-06-20T20:53:47.493Z,93462.55
2019-06-20T20:56:20.542Z,93459.05
2019-06-20T20:58:55.295Z,93464.09
2019-06-20T21:01:28.101Z,93459.91
2019-06-20T21:04:01.722Z,93459.83
2019-06-20T21:06:34.512Z,93460.53
2019-06-20T21:09:09.561Z,93461.55
2019-06-20T21:11:42.371Z,93458.06
2019-06-20T21:14:15.228Z,93451.92
2019-06-20T21:16:48.073Z,93453.86
2019-06-20T21:19:23.218Z,93458.42
2019-06-20T21:21:56.134Z,93462.34
2019-06-20T21:24:28.925Z,93460.98
2019-06-20T21:27:02.414Z,93466.97
2019-06-20T21:29:35.284Z,93471.57
2019-06-20T21:32:08.164Z,93461.61
2019-06-20T21:34:42.710Z,93474.08
2019-06-20T21:37:15.429Z,93481.19
2019-06-20T21:39:48.432Z,93475.95
2019-06-20T21:42:21.119Z,93474.84
2019-06-20T21:44:53.982Z,93479.23
2019-06-20T21:47:26.873Z,93487.95
2019-06-20T21:49:59.987Z,93482.76
2019-06-20T21:52:32.638Z,93490.02
2019-06-20T21:55:05.530Z,93489.97
2019-06-20T21:57:41.409Z,93471.44
2019-06-20T22:00:14.319Z,93477.59
2019-06-20T22:02:47.302Z,93486.77
2019-06-20T22:05:20.104Z,93478.62
2019-06-20T22:07:52.966Z,93480.83
2019-06-20T22:10:26.962Z,93481.70
2019-06-20T22:13:01.365Z,93481.56
2019-06-20T22:15:34.176Z,93483.55
2019-06-20T22:18:07.011Z,93481.05
2019-06-20T22:20:40.129Z,93479.17
2019-06-20T22:23:13.024Z,93478.69
2019-06-20T22:25:45.883Z,93463.70
2019-06-20T22:28:18.898Z,93465.79
2019-06-20T22:30:51.865Z,93471.09
2019-06-20T22:33:24.624Z,93473.20
2019-06-20T22:35:58.251Z,93476.27
2019-06-20T22:38:32.833Z,93473.40
2019-06-20T22:41:06.272Z,93470.06
2019-06-20T22:43:39.088Z,93479.01
2019-06-20T22:46:11.893Z,93481.38
2019-06-20T22:48:46.272Z,93477.74
2019-06-20T22:51:19.168Z,93484.53
2019-06-20T22:53:51.903Z,93482.80
2019-06-20T22:56:25.333Z,93489.09
2019-06-20T22:58:58.884Z,93490.21
2019-06-20T23:01:31.729Z,93490.55
2019-06-20T23:04:04.459Z,93498.13
2019-06-20T23:06:37.371Z,93493.70
2019-06-20T23:09:10.139Z,93489.44
2019-06-20T23:11:44.036Z,93507.74
2019-06-20T23:14:19.805Z,93503.00
2019-06-20T23:16:54.144Z,93501.11
2019-06-20T23:19:27.005Z,93510.10
2019-06-20T23:22:00.730Z,93521.63
2019-06-20T23:24:33.504Z,93522.72
2019-06-20T23:27:06.300Z,93517.98
2019-06-20T23:29:39.099Z,93520.69
2019-06-20T23:32:12.484Z,93520.69
2019-06-20T23:34:45.669Z,93523.53
2019-06-20T23:37:18.502Z,93524.31
2019-06-20T23:39:51.359Z,93527.30
2019-06-20T23:42:25.834Z,93524.32
2019-06-20T23:44:58.527Z,93527.12
2019-06-20T23:47:31.535Z,93530.61
2019-06-20T23:50:04.389Z,93541.51
2019-06-20T23:52:38.916Z,93537.16
2019-06-20T23:55:13.621Z,93533.19
2019-06-20T23:57:47.711Z,93535.55
